Time;durP1;ratioP1;P1;durP2;ratioP2;P2;SDS_P1;SDS_P2;PMS_P1;PMS_P2;Temp;Humidity;BMP_temperature;BMP_pressure;BME280_temperature;BME280_humidity;BME280_pressure;Samples;Min_cycle;Max_cycle;Signal;HPM_P1;HPM_P2
2021/07/22 05:02:07;;;;;;;27.83;22.30;;;;;;;;;;5229823;23;20625;-74
2021/07/22 05:04:54;;;;;;;23.80;21.37;;;;;;;;;;4918685;29;20302;-73
2021/07/22 05:07:38;;;;;;;22.97;20.77;;;;;;;;;;4913579;29;20237;-73
2021/07/22 05:10:23;;;;;;;23.57;20.57;;;;;;;;;;4922953;29;20214;-73
2021/07/22 05:13:08;;;;;;;21.37;19.23;;;;;;;;;;4912238;29;20217;-72
2021/07/22 05:18:49;;;;;;;21.80;19.50;;;;;;;;;;4885434;29;20231;-70
2021/07/22 05:21:34;;;;;;;21.93;19.73;;;;;;;;;;4876630;29;20218;-70
2021/07/22 05:24:19;;;;;;;22.60;20.20;;;;;;;;;;4876293;29;20211;-71
2021/07/22 05:27:04;;;;;;;22.37;20.13;;;;;;;;;;4875150;29;20235;-71
2021/07/22 05:29:49;;;;;;;20.63;18.63;;;;;;;;;;4875506;29;20359;-70
2021/07/22 05:32:34;;;;;;;21.07;19.07;;;;;;;;;;4876354;29;20215;-70
2021/07/22 05:35:20;;;;;;;19.87;18.13;;;;;;;;;;4876740;29;20211;-71
2021/07/22 05:38:05;;;;;;;21.95;19.95;;;;;;;;;;4875251;29;20520;-70
2021/07/22 05:40:50;;;;;;;18.73;17.03;;;;;;;;;;4876807;29;20215;-69
2021/07/22 05:43:35;;;;;;;19.37;17.57;;;;;;;;;;4876769;29;20219;-69
2021/07/22 05:46:21;;;;;;;18.60;16.90;;;;;;;;;;4875818;29;20269;-70
2021/07/22 05:49:06;;;;;;;19.03;17.13;;;;;;;;;;4876474;29;20209;-71
2021/07/22 05:51:52;;;;;;;18.60;16.80;;;;;;;;;;4876724;29;20218;-70
2021/07/22 05:54:37;;;;;;;18.53;16.83;;;;;;;;;;4876648;29;20715;-70
2021/07/22 05:57:22;;;;;;;18.10;16.43;;;;;;;;;;4875921;29;20250;-71
2021/07/22 06:00:09;;;;;;;18.30;16.60;;;;;;;;;;4876452;29;20235;-69
2021/07/22 06:02:54;;;;;;;19.37;17.53;;;;;;;;;;4876650;29;20218;-70
2021/07/22 06:05:39;;;;;;;17.63;15.93;;;;;;;;;;4877441;29;20231;-67
2021/07/22 06:08:26;;;;;;;17.70;15.97;;;;;;;;;;4879597;29;20830;-72
2021/07/22 06:11:13;;;;;;;17.63;16.03;;;;;;;;;;4879656;29;20243;-69
2021/07/22 06:13:58;;;;;;;17.63;16.03;;;;;;;;;;4879954;29;20704;-70
2021/07/22 06:16:42;;;;;;;17.57;15.93;;;;;;;;;;4879076;29;20280;-70
2021/07/22 06:19:30;;;;;;;17.83;16.23;;;;;;;;;;4876435;29;20335;-70
2021/07/22 06:22:15;;;;;;;17.60;15.90;;;;;;;;;;4877992;29;20247;-72
2021/07/22 06:25:02;;;;;;;17.33;15.73;;;;;;;;;;4878399;29;20239;-70
2021/07/22 06:27:46;;;;;;;17.37;15.80;;;;;;;;;;4870995;29;20233;-71
2021/07/22 06:30:31;;;;;;;17.47;15.50;;;;;;;;;;4860858;29;20217;-70
2021/07/22 06:33:16;;;;;;;17.10;15.50;;;;;;;;;;4860715;29;20212;-70
2021/07/22 06:36:01;;;;;;;16.23;14.90;;;;;;;;;;4859975;29;20109;-69
2021/07/22 06:38:46;;;;;;;17.00;15.40;;;;;;;;;;4878558;29;20319;-71
2021/07/22 06:41:32;;;;;;;16.30;14.60;;;;;;;;;;4879440;29;20503;-71
2021/07/22 06:44:17;;;;;;;15.10;13.70;;;;;;;;;;4879014;29;20899;-71
2021/07/22 06:47:02;;;;;;;15.87;14.27;;;;;;;;;;4878481;29;20329;-71
2021/07/22 06:49:47;;;;;;;15.97;14.57;;;;;;;;;;4879217;29;20215;-71
2021/07/22 06:52:32;;;;;;;15.60;14.20;;;;;;;;;;4878062;29;20217;-70
2021/07/22 06:55:17;;;;;;;15.53;14.07;;;;;;;;;;4878587;29;20219;-71
2021/07/22 06:58:07;;;;;;;16.63;15.03;;;;;;;;;;4878462;29;20253;-71
2021/07/22 07:00:52;;;;;;;15.07;13.53;;;;;;;;;;4878880;29;20581;-70
2021/07/22 07:03:37;;;;;;;15.67;14.07;;;;;;;;;;4878875;29;20665;-71
2021/07/22 07:06:21;;;;;;;14.97;13.67;;;;;;;;;;4877831;29;20237;-70
2021/07/22 07:09:07;;;;;;;15.03;13.67;;;;;;;;;;4878714;29;20219;-70
2021/07/22 07:11:52;;;;;;;15.60;14.27;;;;;;;;;;4879405;29;20215;-70
2021/07/22 07:14:38;;;;;;;16.60;15.20;;;;;;;;;;4877658;29;20773;-71
2021/07/22 07:17:23;;;;;;;15.57;14.10;;;;;;;;;;4877343;29;20716;-72
2021/07/22 07:20:08;;;;;;;15.03;13.63;;;;;;;;;;4878674;29;20215;-71
2021/07/22 07:22:56;;;;;;;14.93;13.43;;;;;;;;;;4878797;29;20219;-71
2021/07/22 07:25:41;;;;;;;14.13;12.87;;;;;;;;;;4878343;29;20764;-68
2021/07/22 07:28:26;;;;;;;15.00;13.50;;;;;;;;;;4871797;29;20604;-69
2021/07/22 07:31:12;;;;;;;14.53;13.13;;;;;;;;;;4860097;29;20352;-70
2021/07/22 07:33:57;;;;;;;14.10;12.80;;;;;;;;;;4859913;29;20212;-71
2021/07/22 07:36:44;;;;;;;14.70;13.37;;;;;;;;;;4857887;29;20462;-69
2021/07/22 07:39:29;;;;;;;13.70;12.53;;;;;;;;;;4860019;29;20211;-70
2021/07/22 07:42:14;;;;;;;12.30;11.30;;;;;;;;;;4859723;29;20704;-70
2021/07/22 07:44:59;;;;;;;12.97;11.77;;;;;;;;;;4859395;29;20232;-70
2021/07/22 07:47:46;;;;;;;13.00;11.80;;;;;;;;;;4858520;29;20246;-69
2021/07/22 07:50:31;;;;;;;13.47;12.27;;;;;;;;;;4859375;29;20208;-71
2021/07/22 07:53:16;;;;;;;11.20;10.10;;;;;;;;;;4859482;29;20234;-70
2021/07/22 07:56:01;;;;;;;11.63;10.53;;;;;;;;;;4858854;29;20588;-68
2021/07/22 07:58:46;;;;;;;11.37;10.47;;;;;;;;;;4859131;29;20215;-70
2021/07/22 08:01:31;;;;;;;11.43;10.40;;;;;;;;;;4859310;29;20215;-71
2021/07/22 08:04:18;;;;;;;11.43;9.80;;;;;;;;;;4859539;29;20329;-71
2021/07/22 08:07:03;;;;;;;13.63;9.53;;;;;;;;;;4858344;29;20615;-71
2021/07/22 08:09:48;;;;;;;10.87;9.80;;;;;;;;;;4859299;29;20214;-71
2021/07/22 08:12:32;;;;;;;11.10;10.10;;;;;;;;;;4859238;29;20268;-69
2021/07/22 08:15:17;;;;;;;11.17;10.17;;;;;;;;;;4859144;29;20221;-70
2021/07/22 08:18:02;;;;;;;11.23;10.23;;;;;;;;;;4858343;29;20237;-71
2021/07/22 08:20:48;;;;;;;10.10;9.37;;;;;;;;;;4859089;29;20407;-71
2021/07/22 08:23:33;;;;;;;9.63;8.73;;;;;;;;;;4858839;29;20596;-71
2021/07/22 08:26:18;;;;;;;10.10;9.20;;;;;;;;;;4858184;29;20301;-69
2021/07/22 08:29:03;;;;;;;9.50;8.50;;;;;;;;;;4869787;29;20256;-68
2021/07/22 08:31:48;;;;;;;9.90;9.00;;;;;;;;;;4877159;29;20207;-70
2021/07/22 08:34:33;;;;;;;9.88;9.07;;;;;;;;;;4877206;29;20413;-71
2021/07/22 08:37:19;;;;;;;9.40;8.50;;;;;;;;;;4876593;29;20236;-70
2021/07/22 08:40:05;;;;;;;9.43;8.53;;;;;;;;;;4877576;29;20227;-70
2021/07/22 08:42:50;;;;;;;9.70;8.70;;;;;;;;;;4876653;29;20581;-72
2021/07/22 08:45:35;;;;;;;8.93;8.13;;;;;;;;;;4877174;29;20205;-70
2021/07/22 08:48:21;;;;;;;9.63;8.63;;;;;;;;;;4877010;29;20598;-70
2021/07/22 08:51:07;;;;;;;8.70;8.00;;;;;;;;;;4877126;29;20215;-70
2021/07/22 08:53:53;;;;;;;9.53;8.63;;;;;;;;;;4877212;29;20219;-70
2021/07/22 08:56:38;;;;;;;9.60;8.80;;;;;;;;;;4876241;29;20226;-72
2021/07/22 08:59:24;;;;;;;8.60;7.90;;;;;;;;;;4877202;29;20345;-70
2021/07/22 09:02:11;;;;;;;8.87;8.17;;;;;;;;;;4876948;29;20259;-69
2021/07/22 09:04:56;;;;;;;8.20;7.50;;;;;;;;;;4877052;29;20575;-70
2021/07/22 09:07:42;;;;;;;9.13;8.33;;;;;;;;;;4876482;29;20231;-71
2021/07/22 09:10:28;;;;;;;9.80;8.87;;;;;;;;;;4877635;29;20231;-71
2021/07/22 09:13:23;;;;;;;9.57;8.70;;;;;;;;;;4877032;29;20719;-70
2021/07/22 09:16:08;;;;;;;9.17;8.20;;;;;;;;;;4876149;29;20676;-70
2021/07/22 09:18:53;;;;;;;9.60;8.60;;;;;;;;;;4876805;29;20331;-71
2021/07/22 09:21:40;;;;;;;8.57;7.87;;;;;;;;;;4876991;29;20697;-71
2021/07/22 09:24:25;;;;;;;8.70;7.70;;;;;;;;;;4876753;29;20215;-68
2021/07/22 09:27:31;;;;;;;8.73;8.03;;;;;;;;;;4875785;29;20251;-69
2021/07/22 09:30:19;;;;;;;8.87;8.07;;;;;;;;;;4857858;29;20345;-70
2021/07/22 09:33:06;;;;;;;9.03;8.33;;;;;;;;;;4875941;29;20211;-71
2021/07/22 09:35:52;;;;;;;8.70;7.97;;;;;;;;;;4876043;29;20218;-70
2021/07/22 09:38:36;;;;;;;9.48;8.63;;;;;;;;;;4875398;29;20500;-71
2021/07/22 09:41:22;;;;;;;8.53;7.77;;;;;;;;;;4880238;29;20683;-71
2021/07/22 09:44:26;;;;;;;8.53;7.83;;;;;;;;;;4880347;29;20209;-70
2021/07/22 09:47:11;;;;;;;7.97;7.27;;;;;;;;;;4879379;29;20227;-70
2021/07/22 09:50:08;;;;;;;8.00;7.30;;;;;;;;;;4880229;29;20673;-73
2021/07/22 09:53:05;;;;;;;7.20;6.70;;;;;;;;;;4878747;29;20221;-69
2021/07/22 09:55:54;;;;;;;7.77;7.07;;;;;;;;;;4863669;29;20216;-71
2021/07/22 09:58:39;;;;;;;7.93;7.23;;;;;;;;;;4879407;29;20579;-71
2021/07/22 10:01:25;;;;;;;8.77;8.07;;;;;;;;;;4881766;29;20216;-72
2021/07/22 10:04:10;;;;;;;8.67;7.80;;;;;;;;;;4872948;29;20346;-72
2021/07/22 10:06:56;;;;;;;9.60;8.30;;;;;;;;;;4877813;29;20763;-72
2021/07/22 10:09:41;;;;;;;9.43;8.53;;;;;;;;;;4877370;29;20222;-70
2021/07/22 10:12:26;;;;;;;8.67;7.87;;;;;;;;;;4878776;29;20220;-70
2021/07/22 10:15:11;;;;;;;8.67;7.97;;;;;;;;;;4879604;29;20705;-69
2021/07/22 10:17:58;;;;;;;8.40;7.70;;;;;;;;;;4878646;29;20241;-70
2021/07/22 10:20:43;;;;;;;8.60;7.80;;;;;;;;;;4861074;29;20292;-70
2021/07/22 10:23:29;;;;;;;8.73;7.87;;;;;;;;;;4860856;29;20206;-72
2021/07/22 10:26:14;;;;;;;9.07;8.27;;;;;;;;;;4872895;29;20317;-70
2021/07/22 10:28:59;;;;;;;8.53;7.67;;;;;;;;;;4877542;29;20255;-69
2021/07/22 10:31:46;;;;;;;9.40;8.20;;;;;;;;;;4876960;29;20287;-70
2021/07/22 10:34:34;;;;;;;9.20;8.03;;;;;;;;;;4879142;29;20210;-70
2021/07/22 10:37:20;;;;;;;9.25;8.50;;;;;;;;;;4875302;29;20548;-71
2021/07/22 10:40:07;;;;;;;8.60;7.80;;;;;;;;;;4878242;29;20223;-72
2021/07/22 10:42:52;;;;;;;9.37;8.47;;;;;;;;;;4878877;29;20226;-73
2021/07/22 10:45:52;;;;;;;8.43;7.63;;;;;;;;;;4875100;29;20235;-71
2021/07/22 10:48:37;;;;;;;7.93;7.23;;;;;;;;;;4869614;29;20246;-72
2021/07/22 10:51:38;;;;;;;8.20;7.40;;;;;;;;;;4875282;29;20226;-71
2021/07/22 10:54:43;;;;;;;7.80;7.17;;;;;;;;;;4877992;29;20571;-70
2021/07/22 10:57:38;;;;;;;8.50;7.80;;;;;;;;;;4876915;29;20238;-70
2021/07/22 11:00:41;;;;;;;8.00;7.30;;;;;;;;;;4877762;29;20302;-72
2021/07/22 11:03:41;;;;;;;8.13;7.50;;;;;;;;;;4881142;29;20733;-71
2021/07/22 11:06:27;;;;;;;9.07;8.27;;;;;;;;;;4874919;29;20246;-71
2021/07/22 11:09:12;;;;;;;8.17;7.40;;;;;;;;;;4876752;29;20222;-72
2021/07/22 11:11:57;;;;;;;8.17;7.43;;;;;;;;;;4877822;29;20275;-72
2021/07/22 11:14:43;;;;;;;8.37;7.77;;;;;;;;;;4881116;29;20215;-72
2021/07/22 11:17:30;;;;;;;8.93;8.23;;;;;;;;;;4879817;29;20246;-71
2021/07/22 11:20:32;;;;;;;8.10;7.40;;;;;;;;;;4877402;29;20274;-70
2021/07/22 11:23:20;;;;;;;8.27;7.50;;;;;;;;;;4877836;29;20214;-72
2021/07/22 11:26:05;;;;;;;8.40;7.60;;;;;;;;;;4876864;29;20226;-70
2021/07/22 11:28:50;;;;;;;8.38;7.68;;;;;;;;;;4875172;29;20517;-70
2021/07/22 11:31:38;;;;;;;8.90;8.13;;;;;;;;;;4874891;29;20219;-67
2021/07/22 11:34:27;;;;;;;8.23;7.60;;;;;;;;;;4877232;29;20991;-69
2021/07/22 11:37:18;;;;;;;8.13;7.17;;;;;;;;;;4877477;29;20361;-71
2021/07/22 11:40:08;;;;;;;8.33;7.63;;;;;;;;;;4878058;29;20568;-71
2021/07/22 11:42:53;;;;;;;7.93;7.37;;;;;;;;;;4866685;29;20219;-70
2021/07/22 11:45:42;;;;;;;8.13;7.33;;;;;;;;;;4877500;29;20219;-70
2021/07/22 11:48:27;;;;;;;7.90;7.20;;;;;;;;;;4877997;29;20752;-70
2021/07/22 11:51:13;;;;;;;8.13;7.33;;;;;;;;;;4876646;29;20227;-71
2021/07/22 11:53:58;;;;;;;8.07;7.47;;;;;;;;;;4877049;29;20214;-71
2021/07/22 11:56:47;;;;;;;7.97;7.30;;;;;;;;;;4878819;29;20299;-69
2021/07/22 11:59:33;;;;;;;8.53;7.77;;;;;;;;;;4876887;29;20208;-71
2021/07/22 12:02:18;;;;;;;7.50;6.90;;;;;;;;;;4877675;29;20298;-70
2021/07/22 12:05:03;;;;;;;7.60;6.97;;;;;;;;;;4876512;29;20285;-70
2021/07/22 12:07:49;;;;;;;7.40;6.80;;;;;;;;;;4875308;29;20452;-70
2021/07/22 12:10:33;;;;;;;7.40;6.70;;;;;;;;;;4867992;29;20231;-71
2021/07/22 12:13:20;;;;;;;8.00;7.03;;;;;;;;;;4877409;29;20211;-71
2021/07/22 12:16:05;;;;;;;7.80;7.20;;;;;;;;;;4876587;29;20213;-70
2021/07/22 12:18:50;;;;;;;7.80;7.20;;;;;;;;;;4877255;29;20211;-70
2021/07/22 12:21:35;;;;;;;7.33;6.73;;;;;;;;;;4877374;29;20207;-70
2021/07/22 12:24:20;;;;;;;7.50;7.00;;;;;;;;;;4877362;29;20290;-71
2021/07/22 12:27:05;;;;;;;8.20;7.40;;;;;;;;;;4875298;29;20536;-72
2021/07/22 12:29:51;;;;;;;7.43;6.80;;;;;;;;;;4876295;29;20300;-72
2021/07/22 12:32:36;;;;;;;7.17;6.57;;;;;;;;;;4868007;29;20219;-71
2021/07/22 12:35:29;;;;;;;7.50;6.90;;;;;;;;;;4865377;29;20239;-72
2021/07/22 12:38:23;;;;;;;7.57;6.97;;;;;;;;;;4877227;29;20243;-72
2021/07/22 12:41:09;;;;;;;7.00;6.50;;;;;;;;;;4876906;29;20932;-72
2021/07/22 12:43:54;;;;;;;7.47;6.80;;;;;;;;;;4876949;29;20232;-72
2021/07/22 12:46:40;;;;;;;6.90;6.10;;;;;;;;;;4876420;29;20234;-73
2021/07/22 12:49:40;;;;;;;6.70;6.20;;;;;;;;;;4876762;29;20231;-73
2021/07/22 12:52:26;;;;;;;7.23;6.60;;;;;;;;;;4876059;29;20317;-73
2021/07/22 12:55:11;;;;;;;6.83;6.17;;;;;;;;;;4876184;29;20242;-72
2021/07/22 12:57:56;;;;;;;6.53;5.93;;;;;;;;;;4875326;29;20406;-72
2021/07/22 13:00:41;;;;;;;5.73;5.33;;;;;;;;;;4858370;29;20212;-72
2021/07/22 13:03:27;;;;;;;6.33;5.70;;;;;;;;;;4868726;29;20212;-71
2021/07/22 13:06:13;;;;;;;6.80;6.13;;;;;;;;;;4874630;29;20765;-71
2021/07/22 13:08:57;;;;;;;6.10;5.60;;;;;;;;;;4876991;29;20232;-71
2021/07/22 13:11:43;;;;;;;6.87;6.33;;;;;;;;;;4876471;29;20265;-72
2021/07/22 13:14:27;;;;;;;6.67;6.17;;;;;;;;;;4876505;29;20406;-72
2021/07/22 13:17:12;;;;;;;7.00;6.30;;;;;;;;;;4875944;29;20825;-71
2021/07/22 13:19:58;;;;;;;6.17;5.67;;;;;;;;;;4875666;29;20216;-71
2021/07/22 13:22:43;;;;;;;7.17;6.47;;;;;;;;;;4875333;29;20225;-72
2021/07/22 13:25:28;;;;;;;6.30;5.80;;;;;;;;;;4876417;29;20345;-71
2021/07/22 13:28:13;;;;;;;6.38;5.88;;;;;;;;;;4872194;29;20918;-71
2021/07/22 13:30:58;;;;;;;6.07;5.30;;;;;;;;;;4876108;29;20223;-71
2021/07/22 13:33:44;;;;;;;6.90;6.30;;;;;;;;;;4876691;29;20217;-71
2021/07/22 13:36:31;;;;;;;6.70;6.10;;;;;;;;;;4875059;29;20258;-71
2021/07/22 13:39:16;;;;;;;6.90;6.40;;;;;;;;;;4867765;29;20317;-71
2021/07/22 13:42:01;;;;;;;6.07;5.60;;;;;;;;;;4876622;29;20259;-71
2021/07/22 13:44:46;;;;;;;10.67;6.50;;;;;;;;;;4876876;29;20203;-71
2021/07/22 13:47:33;;;;;;;6.30;5.40;;;;;;;;;;4874343;29;20274;-71
2021/07/22 13:50:18;;;;;;;6.07;5.57;;;;;;;;;;4875368;29;20789;-70
2021/07/22 13:53:05;;;;;;;5.63;5.13;;;;;;;;;;4876650;29;20308;-70
2021/07/22 13:55:50;;;;;;;5.97;5.43;;;;;;;;;;4874974;29;20310;-70
2021/07/22 13:58:35;;;;;;;6.37;5.77;;;;;;;;;;4876034;29;20223;-72
2021/07/22 14:01:20;;;;;;;6.83;5.10;;;;;;;;;;4875807;29;20703;-71
2021/07/22 14:04:05;;;;;;;5.87;5.33;;;;;;;;;;4876382;29;20339;-71
2021/07/22 14:06:50;;;;;;;6.87;5.23;;;;;;;;;;4875777;29;20222;-70
2021/07/22 14:09:37;;;;;;;5.70;5.20;;;;;;;;;;4873545;29;20275;-71
2021/07/22 14:12:22;;;;;;;6.07;5.67;;;;;;;;;;4874509;29;20267;-71
2021/07/22 14:15:07;;;;;;;6.30;5.70;;;;;;;;;;4870052;29;20227;-71
2021/07/22 14:17:52;;;;;;;5.47;5.00;;;;;;;;;;4875021;29;20610;-71
2021/07/22 14:20:37;;;;;;;6.47;5.60;;;;;;;;;;4863474;29;20879;-71
2021/07/22 14:23:22;;;;;;;5.97;5.47;;;;;;;;;;4875129;29;20696;-70
2021/07/22 14:26:08;;;;;;;6.97;5.47;;;;;;;;;;4875724;29;20212;-72
2021/07/22 14:28:53;;;;;;;6.57;6.03;;;;;;;;;;4877416;29;20735;-70
2021/07/22 14:31:39;;;;;;;6.23;5.63;;;;;;;;;;4878526;29;20365;-71
2021/07/22 14:34:24;;;;;;;8.00;5.50;;;;;;;;;;4879255;29;20213;-71
2021/07/22 14:37:09;;;;;;;7.20;6.50;;;;;;;;;;4877750;29;20256;-71
2021/07/22 14:39:54;;;;;;;6.20;5.70;;;;;;;;;;4875671;29;20215;-72
2021/07/22 14:42:40;;;;;;;6.63;6.03;;;;;;;;;;4878274;29;20328;-69
2021/07/22 14:45:25;;;;;;;6.07;5.57;;;;;;;;;;4871319;29;20284;-71
2021/07/22 14:48:10;;;;;;;6.33;5.73;;;;;;;;;;4870454;29;20245;-71
2021/07/22 14:50:55;;;;;;;6.17;5.40;;;;;;;;;;4878748;29;20234;-71
2021/07/22 14:53:40;;;;;;;6.67;6.07;;;;;;;;;;4877188;29;20606;-73
2021/07/22 14:56:25;;;;;;;6.03;5.53;;;;;;;;;;4877243;29;20320;-71
2021/07/22 14:59:11;;;;;;;6.37;5.77;;;;;;;;;;4878999;29;20208;-71
2021/07/22 15:01:56;;;;;;;7.50;5.77;;;;;;;;;;4876619;29;20632;-72
2021/07/22 15:04:41;;;;;;;5.77;5.30;;;;;;;;;;4877778;29;20266;-71
2021/07/22 15:07:26;;;;;;;6.20;5.60;;;;;;;;;;4873712;29;20242;-71
2021/07/22 15:10:11;;;;;;;6.50;5.90;;;;;;;;;;4867374;29;20273;-72
2021/07/22 15:12:58;;;;;;;8.40;5.87;;;;;;;;;;4860124;29;20220;-73
2021/07/22 15:15:44;;;;;;;6.10;5.10;;;;;;;;;;4877940;29;20220;-72
2021/07/22 15:18:29;;;;;;;6.37;5.80;;;;;;;;;;4878627;29;20354;-71
2021/07/22 15:21:14;;;;;;;6.07;5.30;;;;;;;;;;4875146;29;20690;-71
2021/07/22 15:23:59;;;;;;;6.10;5.60;;;;;;;;;;4873075;29;20236;-73
2021/07/22 15:26:44;;;;;;;6.45;5.63;;;;;;;;;;4875978;29;20571;-73
2021/07/22 15:29:29;;;;;;;5.40;5.00;;;;;;;;;;4875489;29;20725;-71
2021/07/22 15:32:16;;;;;;;12.20;11.10;;;;;;;;;;4878107;29;20228;-71
2021/07/22 15:35:01;;;;;;;5.97;5.47;;;;;;;;;;4878366;29;20208;-73
2021/07/22 15:37:46;;;;;;;43.93;39.83;;;;;;;;;;4877591;29;20228;-71
2021/07/22 15:40:31;;;;;;;8.73;7.73;;;;;;;;;;4878222;29;20244;-72
2021/07/22 15:43:16;;;;;;;5.50;5.00;;;;;;;;;;4878646;29;20362;-72
2021/07/22 15:46:01;;;;;;;5.60;5.10;;;;;;;;;;4876480;29;20212;-71
2021/07/22 15:48:47;;;;;;;5.30;4.90;;;;;;;;;;4859401;29;20280;-71
2021/07/22 15:51:32;;;;;;;5.23;4.53;;;;;;;;;;4871299;29;20234;-70
2021/07/22 15:54:18;;;;;;;5.40;4.90;;;;;;;;;;4877231;29;20220;-71
2021/07/22 15:57:03;;;;;;;6.17;5.13;;;;;;;;;;4876426;29;20250;-71
2021/07/22 15:59:48;;;;;;;4.93;4.53;;;;;;;;;;4878128;29;20220;-72
2021/07/22 16:02:33;;;;;;;6.23;4.73;;;;;;;;;;4877854;29;20430;-71
2021/07/22 16:05:19;;;;;;;5.37;4.73;;;;;;;;;;4866903;29;20811;-72
2021/07/22 16:08:04;;;;;;;5.63;5.17;;;;;;;;;;4872682;29;20693;-70
2021/07/22 16:10:49;;;;;;;5.43;4.70;;;;;;;;;;4876341;29;20234;-71
2021/07/22 16:13:34;;;;;;;5.30;4.90;;;;;;;;;;4876505;29;20218;-72
2021/07/22 16:16:19;;;;;;;5.60;5.10;;;;;;;;;;4876772;29;20299;-72
2021/07/22 16:19:04;;;;;;;4.67;4.27;;;;;;;;;;4877803;29;20211;-72
2021/07/22 16:21:50;;;;;;;5.43;4.40;;;;;;;;;;4877772;29;20210;-71
2021/07/22 16:24:35;;;;;;;5.00;4.53;;;;;;;;;;4877579;29;20220;-72
2021/07/22 16:27:20;;;;;;;5.13;4.63;;;;;;;;;;4873134;29;20462;-75
2021/07/22 16:30:06;;;;;;;4.83;4.43;;;;;;;;;;4877307;29;20757;-71
2021/07/22 16:32:51;;;;;;;5.87;4.80;;;;;;;;;;4877145;29;20219;-72
2021/07/22 16:35:36;;;;;;;6.77;5.47;;;;;;;;;;4877378;29;20703;-73
2021/07/22 16:38:23;;;;;;;6.90;4.83;;;;;;;;;;4874891;29;20715;-71
2021/07/22 16:41:08;;;;;;;6.10;5.40;;;;;;;;;;4876972;29;20211;-70
2021/07/22 16:43:52;;;;;;;5.67;4.57;;;;;;;;;;4876155;29;20211;-72
2021/07/22 16:46:37;;;;;;;5.20;4.67;;;;;;;;;;4871329;29;20243;-69
2021/07/22 16:49:22;;;;;;;4.47;4.13;;;;;;;;;;4875322;29;20229;-70
2021/07/22 16:52:07;;;;;;;5.03;4.53;;;;;;;;;;4877588;29;20301;-70
2021/07/22 16:54:53;;;;;;;4.90;4.50;;;;;;;;;;4877099;29;20216;-70
2021/07/22 16:57:38;;;;;;;5.63;4.80;;;;;;;;;;4876553;29;20243;-70
2021/07/22 17:00:23;;;;;;;4.77;4.37;;;;;;;;;;4877459;29;20704;-70
2021/07/22 17:03:08;;;;;;;4.70;4.30;;;;;;;;;;4860192;29;20750;-70
2021/07/22 17:05:53;;;;;;;5.33;4.20;;;;;;;;;;4872732;29;20765;-70
2021/07/22 17:08:38;;;;;;;5.17;4.27;;;;;;;;;;4872091;29;20228;-69
2021/07/22 17:11:26;;;;;;;4.70;4.30;;;;;;;;;;4868162;29;20311;-71
2021/07/22 17:14:11;;;;;;;4.50;4.10;;;;;;;;;;4877101;29;20215;-70
2021/07/22 17:16:56;;;;;;;6.17;4.90;;;;;;;;;;4877003;29;20235;-69
2021/07/22 17:19:41;;;;;;;5.40;4.87;;;;;;;;;;4876772;29;20215;-69
2021/07/22 17:22:26;;;;;;;5.63;4.40;;;;;;;;;;4876394;29;20264;-70
2021/07/22 17:25:11;;;;;;;6.10;4.90;;;;;;;;;;4876418;29;20789;-67
2021/07/22 17:27:58;;;;;;;5.17;4.77;;;;;;;;;;4874979;29;20246;-69
2021/07/22 17:30:44;;;;;;;5.47;4.97;;;;;;;;;;4876501;29;20231;-69
2021/07/22 17:33:28;;;;;;;5.47;4.97;;;;;;;;;;4876768;29;20211;-69
2021/07/22 17:36:13;;;;;;;7.73;4.67;;;;;;;;;;4876257;29;20203;-69
2021/07/22 17:39:01;;;;;;;5.17;4.67;;;;;;;;;;4876631;29;20343;-70
2021/07/22 17:41:46;;;;;;;5.67;5.10;;;;;;;;;;4876705;29;20716;-70
2021/07/22 17:44:32;;;;;;;5.40;4.90;;;;;;;;;;4876670;29;20267;-69
2021/07/22 17:47:17;;;;;;;5.73;5.13;;;;;;;;;;4874211;29;20239;-68
2021/07/22 17:50:02;;;;;;;6.70;5.80;;;;;;;;;;4875645;29;20239;-69
2021/07/22 17:52:46;;;;;;;5.53;5.03;;;;;;;;;;4876552;29;20299;-69
2021/07/22 17:55:31;;;;;;;5.53;5.00;;;;;;;;;;4875525;29;20207;-70
2021/07/22 17:58:16;;;;;;;5.10;4.53;;;;;;;;;;4857721;29;20240;-71
2021/07/22 18:01:02;;;;;;;5.73;5.03;;;;;;;;;;4862505;29;20217;-70
2021/07/22 18:03:47;;;;;;;5.22;4.82;;;;;;;;;;4860189;29;20428;-69
2021/07/22 18:06:32;;;;;;;5.23;4.80;;;;;;;;;;4860815;29;20235;-69
2021/07/22 18:09:17;;;;;;;6.10;5.13;;;;;;;;;;4876675;29;20214;-70
2021/07/22 18:12:02;;;;;;;5.67;5.10;;;;;;;;;;4878491;29;20219;-71
2021/07/22 18:14:47;;;;;;;5.80;5.30;;;;;;;;;;4879063;29;20715;-71
2021/07/22 18:17:34;;;;;;;5.20;4.70;;;;;;;;;;4879335;29;20238;-69
2021/07/22 18:20:19;;;;;;;5.47;5.07;;;;;;;;;;4879696;29;20272;-72
2021/07/22 18:23:05;;;;;;;8.17;5.00;;;;;;;;;;4878452;29;20796;-70
2021/07/22 18:25:50;;;;;;;5.32;4.82;;;;;;;;;;4877505;29;20466;-69
2021/07/22 18:28:35;;;;;;;5.83;4.87;;;;;;;;;;4879403;29;20219;-72
2021/07/22 18:31:23;;;;;;;5.73;4.80;;;;;;;;;;4879282;29;20234;-71
2021/07/22 18:34:12;;;;;;;5.40;5.00;;;;;;;;;;4877914;29;20333;-70
2021/07/22 18:37:01;;;;;;;5.40;5.03;;;;;;;;;;4878904;29;20234;-72
2021/07/22 18:39:46;;;;;;;5.30;4.80;;;;;;;;;;4879440;29;20332;-70
2021/07/22 18:42:31;;;;;;;5.27;4.87;;;;;;;;;;4861282;29;20199;-69
2021/07/22 18:45:16;;;;;;;5.83;4.93;;;;;;;;;;4870567;29;20352;-68
2021/07/22 18:48:01;;;;;;;5.23;4.73;;;;;;;;;;4878666;29;20242;-69
2021/07/22 18:50:47;;;;;;;5.60;4.77;;;;;;;;;;4878088;29;20323;-71
2021/07/22 18:53:32;;;;;;;5.93;4.90;;;;;;;;;;4879216;29;20275;-70
2021/07/22 18:56:19;;;;;;;5.90;5.40;;;;;;;;;;4878130;29;20711;-69
2021/07/22 18:59:04;;;;;;;5.17;4.83;;;;;;;;;;4876721;29;20289;-70
2021/07/22 19:01:49;;;;;;;5.33;4.77;;;;;;;;;;4872121;29;20297;-69
2021/07/22 19:04:34;;;;;;;5.30;4.87;;;;;;;;;;4879168;29;20211;-69
2021/07/22 19:07:20;;;;;;;5.07;4.60;;;;;;;;;;4877023;29;20241;-70
2021/07/22 19:10:06;;;;;;;7.90;5.40;;;;;;;;;;4878894;29;20226;-69
2021/07/22 19:12:51;;;;;;;5.50;4.67;;;;;;;;;;4878424;29;20208;-69
2021/07/22 19:15:36;;;;;;;4.90;4.50;;;;;;;;;;4878410;29;20213;-68
2021/07/22 19:18:21;;;;;;;6.23;4.47;;;;;;;;;;4878468;29;20240;-69
2021/07/22 19:21:06;;;;;;;5.07;4.50;;;;;;;;;;4878668;29;20240;-69
2021/07/22 19:23:53;;;;;;;6.17;4.70;;;;;;;;;;4878696;29;20336;-70
2021/07/22 19:26:38;;;;;;;5.20;4.80;;;;;;;;;;4876064;29;20446;-70
2021/07/22 19:29:23;;;;;;;4.93;4.60;;;;;;;;;;4878414;29;20198;-70
2021/07/22 19:32:09;;;;;;;5.23;4.73;;;;;;;;;;4877511;29;20236;-70
2021/07/22 19:34:54;;;;;;;4.70;4.30;;;;;;;;;;4877364;29;20302;-70
2021/07/22 19:37:39;;;;;;;7.30;4.90;;;;;;;;;;4877380;29;20232;-70
2021/07/22 19:40:25;;;;;;;9.10;5.00;;;;;;;;;;4878119;29;20203;-70
2021/07/22 19:43:10;;;;;;;5.60;4.97;;;;;;;;;;4878311;29;20722;-70
2021/07/22 19:45:55;;;;;;;7.07;5.10;;;;;;;;;;4876645;29;20225;-70
2021/07/22 19:48:40;;;;;;;5.10;4.67;;;;;;;;;;4875441;29;20592;-70
2021/07/22 19:51:25;;;;;;;5.20;4.80;;;;;;;;;;4877939;29;20226;-70
2021/07/22 19:54:12;;;;;;;6.90;4.40;;;;;;;;;;4878139;29;20611;-70
2021/07/22 19:57:00;;;;;;;5.43;4.50;;;;;;;;;;4876313;29;20319;-71
2021/07/22 19:59:45;;;;;;;5.13;4.73;;;;;;;;;;4877903;29;20356;-69
2021/07/22 21:01:55;;;;;;;5.75;5.25;;;;;;;;;;5869929;23;20410;-70
2021/07/22 21:04:39;;;;;;;5.23;4.83;;;;;;;;;;4875105;29;20211;-72
2021/07/22 21:07:24;;;;;;;5.37;4.87;;;;;;;;;;4872228;29;20211;-72
2021/07/22 21:10:09;;;;;;;5.30;4.90;;;;;;;;;;4878559;29;20299;-70
2021/07/22 21:12:54;;;;;;;5.90;4.93;;;;;;;;;;4877184;29;20610;-71
2021/07/22 21:15:39;;;;;;;5.33;4.83;;;;;;;;;;4875980;29;20215;-70
2021/07/22 21:18:26;;;;;;;4.90;4.50;;;;;;;;;;4878216;29;20223;-71
2021/07/22 21:21:13;;;;;;;6.43;4.87;;;;;;;;;;4876330;29;20753;-71
2021/07/22 21:23:58;;;;;;;5.83;5.33;;;;;;;;;;4875203;29;20419;-71
2021/07/22 21:26:44;;;;;;;5.50;5.00;;;;;;;;;;4875278;29;20356;-71
2021/07/22 21:29:29;;;;;;;5.30;4.90;;;;;;;;;;4876222;29;20215;-71
2021/07/22 21:32:14;;;;;;;5.67;5.23;;;;;;;;;;4889874;29;20233;-71
2021/07/22 21:35:00;;;;;;;5.60;5.20;;;;;;;;;;4893840;29;20229;-71
2021/07/22 21:37:45;;;;;;;5.70;5.23;;;;;;;;;;4883702;29;20218;-70
2021/07/22 21:40:30;;;;;;;5.70;5.13;;;;;;;;;;4895410;29;20590;-70
2021/07/22 21:43:15;;;;;;;5.67;5.10;;;;;;;;;;4861993;29;20240;-71
2021/07/22 21:46:00;;;;;;;5.77;5.30;;;;;;;;;;4867652;29;20210;-70
2021/07/22 21:48:44;;;;;;;5.67;5.17;;;;;;;;;;4879258;29;20223;-71
2021/07/22 21:51:31;;;;;;;6.00;5.60;;;;;;;;;;4881209;29;20726;-69
2021/07/22 21:54:16;;;;;;;6.20;5.67;;;;;;;;;;4868553;29;20304;-70
2021/07/22 21:57:01;;;;;;;6.43;5.93;;;;;;;;;;4892457;29;20227;-70
2021/07/22 21:59:46;;;;;;;6.10;5.60;;;;;;;;;;4898706;29;20776;-70
2021/07/22 22:02:32;;;;;;;5.90;5.30;;;;;;;;;;4878074;29;20258;-71
2021/07/22 22:05:17;;;;;;;8.93;6.43;;;;;;;;;;4881568;29;20210;-72
2021/07/22 22:08:03;;;;;;;7.23;6.63;;;;;;;;;;4895901;29;20719;-70
2021/07/22 22:10:48;;;;;;;6.90;6.30;;;;;;;;;;4898439;29;20271;-70
2021/07/22 22:13:34;;;;;;;7.03;6.33;;;;;;;;;;4898502;29;20235;-70
2021/07/22 22:16:19;;;;;;;6.40;5.90;;;;;;;;;;4898059;29;20214;-70
2021/07/22 22:19:04;;;;;;;6.40;5.87;;;;;;;;;;4894950;29;20214;-70
2021/07/22 22:21:49;;;;;;;7.38;6.68;;;;;;;;;;4870148;29;20575;-69
2021/07/22 22:24:35;;;;;;;7.40;6.70;;;;;;;;;;4895630;29;20448;-72
2021/07/22 22:27:20;;;;;;;6.83;6.23;;;;;;;;;;4896716;29;20222;-71
2021/07/22 22:30:06;;;;;;;6.80;6.20;;;;;;;;;;4890890;29;20307;-71
2021/07/22 22:32:51;;;;;;;7.00;6.40;;;;;;;;;;4879462;29;20763;-70